createdAt,value
2023-05-25T00:02:18.182Z,18.80
2023-05-25T00:07:18.036Z,27.60
2023-05-25T00:12:17.957Z,19.20
2023-05-25T00:17:17.918Z,21.70
2023-05-25T00:22:17.846Z,18.20
2023-05-25T00:27:17.798Z,21.60
2023-05-25T00:32:17.708Z,20.50
2023-05-25T00:37:17.622Z,18.50
2023-05-25T00:42:17.613Z,25.80
2023-05-25T00:47:17.532Z,18.00
2023-05-25T00:52:17.524Z,16.50
2023-05-25T00:57:17.456Z,19.70
2023-05-25T01:02:17.693Z,18.30
2023-05-25T01:07:17.420Z,22.90
2023-05-25T01:12:17.289Z,22.50
2023-05-25T01:17:17.393Z,18.50
2023-05-25T01:22:17.220Z,22.80
2023-05-25T01:27:17.190Z,21.70
2023-05-25T01:32:18.315Z,29.20
2023-05-25T01:37:17.061Z,23.40
2023-05-25T01:42:16.949Z,23.00
2023-05-25T01:47:16.917Z,21.30
2023-05-25T01:52:16.858Z,22.10
2023-05-25T01:57:16.803Z,24.80
2023-05-25T02:02:16.717Z,23.90
2023-05-25T02:07:16.692Z,22.00
2023-05-25T02:12:16.625Z,22.00
2023-05-25T02:17:16.588Z,25.60
2023-05-25T02:22:16.522Z,25.00
2023-05-25T02:27:16.577Z,27.00
2023-05-25T02:32:16.502Z,25.00
2023-05-25T02:37:16.447Z,21.80
2023-05-25T02:42:16.409Z,30.60
2023-05-25T02:47:16.310Z,23.00
2023-05-25T02:52:16.271Z,24.60
2023-05-25T02:57:16.197Z,20.60
2023-05-25T03:02:16.188Z,28.90
2023-05-25T03:07:16.151Z,29.30
2023-05-25T03:12:15.974Z,27.10
2023-05-25T03:17:15.994Z,23.90
2023-05-25T03:22:15.864Z,26.20
2023-05-25T03:27:15.874Z,30.00
2023-05-25T03:32:15.881Z,26.90
2023-05-25T03:37:15.721Z,29.50
2023-05-25T03:42:15.762Z,29.60
2023-05-25T03:47:15.709Z,24.80
2023-05-25T03:52:15.553Z,28.00
2023-05-25T03:57:15.601Z,30.00
2023-05-25T04:02:15.500Z,27.40
2023-05-25T04:07:15.492Z,26.00
2023-05-25T04:12:15.445Z,26.60
2023-05-25T04:17:15.349Z,31.70
2023-05-25T04:22:15.258Z,28.90
2023-05-25T04:27:15.223Z,26.40
2023-05-25T04:32:15.187Z,34.10
2023-05-25T04:37:15.035Z,23.80
2023-05-25T04:42:15.013Z,24.90
2023-05-25T04:47:14.946Z,25.10
2023-05-25T04:52:14.924Z,29.10
2023-05-25T04:57:14.885Z,21.90
2023-05-25T05:02:14.915Z,26.50
2023-05-25T05:07:14.834Z,22.40
2023-05-25T05:12:15.710Z,20.60
2023-05-25T05:17:14.730Z,22.10
2023-05-25T05:22:14.618Z,27.70
2023-05-25T05:27:14.564Z,24.20
2023-05-25T05:32:14.561Z,19.80
2023-05-25T05:37:14.543Z,23.50
2023-05-25T05:42:14.390Z,21.40
2023-05-25T05:47:14.362Z,26.50
2023-05-25T05:52:14.247Z,27.80
2023-05-25T05:57:14.186Z,28.90
2023-05-25T06:02:14.183Z,32.50
2023-05-25T06:07:14.104Z,41.20
2023-05-25T06:12:14.060Z,27.20
2023-05-25T06:17:13.999Z,24.00
2023-05-25T06:22:14.052Z,27.10
2023-05-25T06:27:13.954Z,26.90
2023-05-25T06:32:14.039Z,23.00
2023-05-25T06:37:13.767Z,20.40
2023-05-25T06:42:13.793Z,19.50
2023-05-25T06:47:13.728Z,30.10
2023-05-25T06:52:13.627Z,24.70
2023-05-25T06:57:14.090Z,25.20
2023-05-25T07:02:13.497Z,22.20
2023-05-25T07:07:13.545Z,23.00
2023-05-25T07:12:13.358Z,25.20
2023-05-25T07:17:13.338Z,21.40
2023-05-25T07:22:13.286Z,25.60
2023-05-25T07:27:13.251Z,24.40
2023-05-25T07:32:13.185Z,29.50
2023-05-25T07:37:13.172Z,25.00
2023-05-25T07:42:13.039Z,20.90
2023-05-25T07:47:14.057Z,27.40
2023-05-25T07:52:12.972Z,33.40
2023-05-25T07:57:12.968Z,24.50
2023-05-25T08:02:12.955Z,28.80
2023-05-25T08:07:12.900Z,35.00
2023-05-25T08:12:37.948Z,31.90
2023-05-25T08:17:13.895Z,22.40
2023-05-25T08:22:12.688Z,33.10
2023-05-25T08:27:12.607Z,27.10
2023-05-25T08:32:12.511Z,27.80
2023-05-25T08:37:12.462Z,28.70
2023-05-25T08:42:12.386Z,25.00
2023-05-25T08:47:12.433Z,20.60
2023-05-25T08:52:12.292Z,23.60
2023-05-25T08:57:12.393Z,22.00
2023-05-25T09:02:15.761Z,21.90
2023-05-25T09:07:12.296Z,21.10
2023-05-25T09:12:12.186Z,20.20
2023-05-25T09:17:12.090Z,21.10
2023-05-25T09:22:16.276Z,18.40
2023-05-25T09:27:12.958Z,17.30
2023-05-25T09:32:12.023Z,15.70
2023-05-25T09:37:11.969Z,17.80
2023-05-25T09:42:11.785Z,14.60
2023-05-25T09:47:11.711Z,17.20
2023-05-25T09:52:11.644Z,11.40
2023-05-25T09:57:11.649Z,13.50
2023-05-25T10:02:11.587Z,14.40
2023-05-25T10:07:11.475Z,13.30
2023-05-25T10:12:11.483Z,14.20
2023-05-25T10:17:11.507Z,10.40
2023-05-25T10:22:11.483Z,11.60
2023-05-25T10:27:25.667Z,13.40
2023-05-25T10:32:12.378Z,16.80
2023-05-25T10:37:11.135Z,13.00
2023-05-25T10:42:11.183Z,12.90
2023-05-25T10:47:11.206Z,10.20
2023-05-25T10:52:11.086Z,10.90
2023-05-25T10:57:11.092Z,12.70
2023-05-25T11:02:11.011Z,11.40
2023-05-25T11:07:10.925Z,12.20
2023-05-25T11:12:10.788Z,14.30
2023-05-25T11:17:11.089Z,11.20
2023-05-25T11:22:10.689Z,10.30
2023-05-25T11:27:10.653Z,13.20
2023-05-25T11:32:10.591Z,14.40
2023-05-25T11:37:12.222Z,12.30
2023-05-25T11:42:10.471Z,13.90
2023-05-25T11:47:10.488Z,17.20
2023-05-25T11:52:12.460Z,12.90
2023-05-25T11:57:10.350Z,13.20
2023-05-25T12:02:10.331Z,14.50
2023-05-25T12:07:10.318Z,15.80
2023-05-25T12:12:10.213Z,11.50
2023-05-25T12:17:10.294Z,18.10
2023-05-25T12:22:10.081Z,10.70
2023-05-25T12:27:11.105Z,19.40
2023-05-25T12:32:10.097Z,17.30
2023-05-25T12:37:10.042Z,16.10
2023-05-25T12:42:09.926Z,10.40
2023-05-25T12:47:09.810Z,15.80
2023-05-25T12:52:09.762Z,19.60
2023-05-25T12:57:10.790Z,13.20
2023-05-25T13:02:18.624Z,12.50
2023-05-25T13:07:09.594Z,14.60
2023-05-25T13:12:09.536Z,11.10
2023-05-25T13:17:09.475Z,14.60
2023-05-25T13:22:09.470Z,12.80
2023-05-25T13:27:09.461Z,14.60
2023-05-25T13:32:09.497Z,11.60
2023-05-25T13:37:09.285Z,13.20
2023-05-25T13:42:09.215Z,12.30
2023-05-25T13:47:09.181Z,11.60
2023-05-25T13:52:09.090Z,13.90
2023-05-25T13:57:09.007Z,17.00
2023-05-25T14:02:09.324Z,13.40
2023-05-25T14:07:09.211Z,13.80
2023-05-25T14:12:09.097Z,13.20
2023-05-25T14:17:09.057Z,18.50
2023-05-25T14:22:13.944Z,13.00
2023-05-25T14:27:10.048Z,11.70
2023-05-25T14:32:08.975Z,14.70
2023-05-25T14:37:09.805Z,15.40
2023-05-25T14:42:08.641Z,10.70
2023-05-25T14:47:08.662Z,11.40
2023-05-25T14:52:08.616Z,11.20
2023-05-25T14:57:08.517Z,11.40
2023-05-25T15:02:08.459Z,12.20
2023-05-25T15:07:08.817Z,11.80
2023-05-25T15:12:08.259Z,14.60
2023-05-25T15:17:08.245Z,13.80
2023-05-25T15:22:08.221Z,10.50
2023-05-25T15:27:08.109Z,12.80
2023-05-25T15:32:08.361Z,16.90
2023-05-25T15:37:08.089Z,14.60
2023-05-25T15:42:07.976Z,13.50
2023-05-25T15:47:07.967Z,9.40
2023-05-25T15:52:07.890Z,13.40
2023-05-25T15:57:07.802Z,12.40
2023-05-25T16:02:07.958Z,12.10
2023-05-25T16:07:07.787Z,13.30
2023-05-25T16:12:07.684Z,10.50
2023-05-25T16:17:07.612Z,13.00
2023-05-25T16:22:07.677Z,12.60
2023-05-25T16:27:07.569Z,11.60
2023-05-25T16:32:07.574Z,14.20
2023-05-25T16:37:07.415Z,10.30
2023-05-25T16:42:07.304Z,9.80
2023-05-25T16:47:07.324Z,11.80
2023-05-25T16:52:07.282Z,13.40
2023-05-25T16:57:07.170Z,11.00
2023-05-25T17:02:07.112Z,12.30
2023-05-25T17:07:07.016Z,11.20
2023-05-25T17:12:07.311Z,11.60
2023-05-25T17:17:07.480Z,13.30
2023-05-25T17:22:06.911Z,11.20
2023-05-25T17:27:06.845Z,12.40
2023-05-25T17:32:06.780Z,11.70
2023-05-25T17:37:06.851Z,11.70
2023-05-25T17:42:06.772Z,8.80
2023-05-25T17:47:09.184Z,12.60
2023-05-25T17:52:06.746Z,15.20
2023-05-25T17:57:06.624Z,11.20
2023-05-25T18:02:06.799Z,14.30
2023-05-25T18:07:07.582Z,14.10
2023-05-25T18:12:07.534Z,12.00
2023-05-25T18:17:06.394Z,14.80
2023-05-25T18:22:06.294Z,13.00
2023-05-25T18:27:06.402Z,15.00
2023-05-25T18:32:06.263Z,11.90
2023-05-25T18:37:06.235Z,14.60
2023-05-25T18:42:06.201Z,13.00
2023-05-25T18:47:06.013Z,20.10
2023-05-25T18:52:05.911Z,14.00
2023-05-25T18:57:05.872Z,11.50
2023-05-25T19:02:14.694Z,13.80
2023-05-25T19:07:05.702Z,11.90
2023-05-25T19:12:05.656Z,12.90
2023-05-25T19:17:05.709Z,12.30
2023-05-25T19:22:05.640Z,10.70
2023-05-25T19:27:05.541Z,12.60
2023-05-25T19:32:05.678Z,20.00
2023-05-25T19:37:11.553Z,17.90
2023-05-25T19:42:06.344Z,14.00
2023-05-25T19:47:05.392Z,18.30
2023-05-25T19:52:05.312Z,17.80
2023-05-25T19:57:06.233Z,17.20
2023-05-25T20:02:05.201Z,14.20
2023-05-25T20:07:05.168Z,15.70
2023-05-25T20:12:05.044Z,17.50
2023-05-25T20:17:04.939Z,17.20
2023-05-25T20:22:05.023Z,14.40
2023-05-25T20:27:04.907Z,16.20
2023-05-25T20:32:06.061Z,14.70
2023-05-25T20:37:11.723Z,15.30
2023-05-25T20:42:05.004Z,16.90
2023-05-25T20:47:04.703Z,14.50
2023-05-25T20:52:04.639Z,13.80
2023-05-25T20:57:04.598Z,17.40
2023-05-25T21:02:04.730Z,20.40
2023-05-25T21:07:04.486Z,20.40
2023-05-25T21:12:04.359Z,17.30
2023-05-25T21:17:04.373Z,18.70
2023-05-25T21:22:04.292Z,18.50
2023-05-25T21:27:04.174Z,17.80
2023-05-25T21:32:04.126Z,14.10
2023-05-25T21:37:04.119Z,17.80
2023-05-25T21:42:04.033Z,15.50
2023-05-25T21:47:04.217Z,13.40
2023-05-25T21:52:03.934Z,15.40
2023-05-25T21:57:03.879Z,12.40
2023-05-25T22:02:03.962Z,20.00
2023-05-25T22:07:03.883Z,20.30
2023-05-25T22:12:03.690Z,19.60
2023-05-25T22:17:03.838Z,19.40
2023-05-25T22:22:03.744Z,17.40
2023-05-25T22:27:03.547Z,21.10
2023-05-25T22:32:03.515Z,18.90
2023-05-25T22:37:03.423Z,19.70
2023-05-25T22:42:03.404Z,26.90
2023-05-25T22:47:03.317Z,22.00
2023-05-25T22:52:03.259Z,23.80
2023-05-25T22:57:03.236Z,25.40
2023-05-25T23:02:03.213Z,29.70
2023-05-25T23:07:03.114Z,21.40
2023-05-25T23:12:03.074Z,30.60
2023-05-25T23:17:03.056Z,34.40
2023-05-25T23:22:03.083Z,28.30
2023-05-25T23:27:02.897Z,29.00
2023-05-25T23:32:03.006Z,30.30
2023-05-25T23:37:04.979Z,32.40
2023-05-25T23:42:02.746Z,30.10
2023-05-25T23:47:02.722Z,24.20
2023-05-25T23:52:02.640Z,30.90
2023-05-25T23:57:02.655Z,35.60
